Time;durP1;ratioP1;P1;durP2;ratioP2;P2;SDS_P1;SDS_P2;PMS_P1;PMS_P2;Temp;Humidity;BMP_temperature;BMP_pressure;BME280_temperature;BME280_humidity;BME280_pressure;Samples;Min_cycle;Max_cycle;Signal;HPM_P1;HPM_P2
2021/03/14 00:01:00;;;;;;;7.85;2.00;;;6.10;82.80;;;;;;5075728;28;20099;-73
2021/03/14 00:03:28;;;;;;;10.50;1.83;;;6.10;82.90;;;;;;5074060;28;20078;-73
2021/03/14 00:05:55;;;;;;;7.60;1.50;;;6.10;82.90;;;;;;5073807;28;20032;-73
2021/03/14 00:08:24;;;;;;;10.43;2.00;;;6.10;82.90;;;;;;5075225;28;20123;-73
2021/03/14 00:10:52;;;;;;;7.80;1.90;;;6.10;82.80;;;;;;5073919;28;20021;-72
2021/03/14 00:13:22;;;;;;;5.55;1.55;;;6.00;82.70;;;;;;5075355;28;20028;-71
2021/03/14 00:15:48;;;;;;;6.28;1.90;;;6.00;82.70;;;;;;5073870;28;20041;-72
2021/03/14 00:18:16;;;;;;;8.88;1.80;;;6.00;82.60;;;;;;5075253;28;20028;-73
2021/03/14 00:20:42;;;;;;;7.70;1.63;;;6.00;82.70;;;;;;5073687;28;20427;-73
2021/03/14 00:23:08;;;;;;;12.18;1.85;;;6.00;82.60;;;;;;5075011;28;20020;-73
2021/03/14 00:25:33;;;;;;;9.90;2.13;;;6.00;82.50;;;;;;5074789;28;20104;-73
2021/03/14 00:27:59;;;;;;;6.50;2.17;;;6.00;82.60;;;;;;5074885;28;20052;-72
2021/03/14 00:30:26;;;;;;;5.60;1.73;;;6.00;82.50;;;;;;5073663;28;20472;-73
2021/03/14 00:32:52;;;;;;;7.50;1.90;;;6.00;82.40;;;;;;5074876;28;20104;-73
2021/03/14 00:35:19;;;;;;;10.10;1.73;;;6.00;82.50;;;;;;5073329;28;20059;-73
2021/03/14 00:37:45;;;;;;;8.02;1.92;;;6.00;82.50;;;;;;5074549;28;20033;-73
2021/03/14 00:40:12;;;;;;;8.63;1.92;;;6.10;82.50;;;;;;5074450;28;20506;-73
2021/03/14 00:42:38;;;;;;;7.70;1.63;;;6.10;82.40;;;;;;5073405;28;20040;-73
2021/03/14 00:45:06;;;;;;;8.50;2.10;;;6.10;82.40;;;;;;5074829;28;20017;-73
2021/03/14 00:47:33;;;;;;;10.30;2.25;;;6.10;82.30;;;;;;5072979;28;20094;-73
2021/03/14 00:49:58;;;;;;;10.15;1.75;;;6.10;82.30;;;;;;5072833;28;20092;-73
2021/03/14 00:52:24;;;;;;;11.48;2.28;;;6.10;82.10;;;;;;5072306;28;20526;-73
2021/03/14 00:54:50;;;;;;;7.55;1.95;;;6.00;81.90;;;;;;5074380;28;20046;-73
2021/03/14 00:57:15;;;;;;;8.15;2.15;;;6.10;82.10;;;;;;5072985;28;20016;-73
2021/03/14 00:59:41;;;;;;;9.15;2.00;;;6.10;82.00;;;;;;5073053;28;20387;-72
2021/03/14 01:02:07;;;;;;;9.30;2.45;;;6.10;82.00;;;;;;5074096;28;20029;-73
2021/03/14 01:04:32;;;;;;;6.00;1.45;;;6.10;81.90;;;;;;5072659;28;20035;-73
2021/03/14 01:06:58;;;;;;;10.60;2.05;;;6.20;81.90;;;;;;5072672;28;20017;-73
2021/03/14 01:09:24;;;;;;;6.45;1.65;;;6.20;81.80;;;;;;5072624;28;20372;-73
2021/03/14 01:11:49;;;;;;;8.02;1.60;;;6.20;81.80;;;;;;5072541;28;20017;-73
2021/03/14 01:14:15;;;;;;;6.32;1.70;;;6.20;81.80;;;;;;5072554;28;20027;-73
2021/03/14 01:16:41;;;;;;;11.75;2.05;;;6.30;81.70;;;;;;5073563;28;20093;-73
2021/03/14 01:19:07;;;;;;;9.25;1.77;;;6.30;81.70;;;;;;5073951;28;20073;-73
2021/03/14 01:21:33;;;;;;;18.15;2.40;;;6.30;81.70;;;;;;5073674;28;20017;-72
2021/03/14 01:23:59;;;;;;;8.60;2.17;;;6.30;81.60;;;;;;5072358;28;20333;-72
2021/03/14 01:26:24;;;;;;;8.13;1.65;;;6.30;81.20;;;;;;5069605;28;20024;-72
2021/03/14 01:28:50;;;;;;;6.63;1.73;;;6.30;81.40;;;;;;5072519;28;20029;-72
2021/03/14 01:31:16;;;;;;;7.82;1.92;;;6.40;81.40;;;;;;5073838;28;20020;-72
2021/03/14 01:33:42;;;;;;;7.15;1.77;;;6.40;81.40;;;;;;5072478;28;20025;-72
2021/03/14 01:36:08;;;;;;;9.68;1.73;;;6.40;81.30;;;;;;5072455;28;20032;-73
2021/03/14 01:38:34;;;;;;;6.20;1.48;;;6.40;81.30;;;;;;5072322;28;20115;-72
2021/03/14 01:41:00;;;;;;;9.07;1.80;;;6.40;81.40;;;;;;5073661;28;20433;-73
2021/03/14 01:43:29;;;;;;;5.88;1.40;;;6.50;81.20;;;;;;5073767;28;20495;-73
2021/03/14 01:45:54;;;;;;;6.78;1.85;;;6.50;81.00;;;;;;5073534;28;20420;-73
2021/03/14 01:48:24;;;;;;;6.90;1.88;;;6.40;81.00;;;;;;5073534;28;20016;-73
2021/03/14 01:50:50;;;;;;;7.80;1.80;;;6.40;81.20;;;;;;5073085;28;20111;-73
2021/03/14 01:53:16;;;;;;;6.75;1.60;;;6.50;81.30;;;;;;5071833;28;20039;-73
2021/03/14 01:55:42;;;;;;;9.85;1.70;;;6.40;81.30;;;;;;5073501;28;20021;-73
2021/03/14 01:58:09;;;;;;;8.55;1.58;;;6.50;81.30;;;;;;5071805;28;20074;-73
2021/03/14 02:00:35;;;;;;;6.30;1.60;;;6.50;81.20;;;;;;5071709;28;20024;-73
2021/03/14 02:03:01;;;;;;;11.00;2.05;;;6.50;81.30;;;;;;5071764;28;20130;-73
2021/03/14 02:05:27;;;;;;;7.65;1.60;;;6.40;81.10;;;;;;5073014;28;20032;-73
2021/03/14 02:07:54;;;;;;;10.02;1.88;;;6.50;81.10;;;;;;5073019;28;20028;-73
2021/03/14 02:10:26;;;;;;;7.50;1.98;;;6.50;81.10;;;;;;5071971;28;20379;-73
2021/03/14 02:13:05;;;;;;;8.27;1.50;;;6.50;81.00;;;;;;5071713;28;20020;-73
2021/03/14 02:15:34;;;;;;;9.90;1.75;;;6.50;81.00;;;;;;5072587;28;20084;-73
2021/03/14 02:18:01;;;;;;;6.95;2.10;;;6.50;81.10;;;;;;5071548;28;20024;-73
2021/03/14 02:20:31;;;;;;;9.48;1.60;;;6.50;81.10;;;;;;5072810;28;20062;-73
2021/03/14 02:23:23;;;;;;;7.68;1.45;;;6.50;81.10;;;;;;5072913;28;20128;-73
2021/03/14 02:25:53;;;;;;;8.43;1.30;;;6.50;81.00;;;;;;5072927;28;20085;-73
2021/03/14 02:28:19;;;;;;;8.93;1.60;;;6.50;81.00;;;;;;5071582;28;20029;-73
2021/03/14 02:30:46;;;;;;;7.28;1.63;;;6.50;81.00;;;;;;5071667;28;20029;-73
2021/03/14 02:33:16;;;;;;;6.00;1.65;;;6.60;81.00;;;;;;5071653;28;20009;-73
2021/03/14 02:35:43;;;;;;;9.93;1.80;;;6.60;80.90;;;;;;5071632;28;20017;-73
2021/03/14 02:38:10;;;;;;;8.40;1.50;;;6.50;80.90;;;;;;5071547;28;20025;-73
2021/03/14 02:40:36;;;;;;;8.75;1.80;;;6.50;80.90;;;;;;5071262;28;20606;-73
2021/03/14 02:43:03;;;;;;;8.88;2.03;;;6.50;81.00;;;;;;5071137;28;20024;-73
2021/03/14 02:45:30;;;;;;;10.35;1.77;;;6.50;80.90;;;;;;5071087;28;20479;-73
2021/03/14 02:47:56;;;;;;;6.25;1.60;;;6.50;80.90;;;;;;5072426;28;20031;-73
2021/03/14 02:50:22;;;;;;;8.02;1.88;;;6.50;81.00;;;;;;5072510;28;20524;-73
2021/03/14 02:52:49;;;;;;;6.13;1.55;;;6.50;81.20;;;;;;5071102;28;20392;-73
2021/03/14 02:55:18;;;;;;;6.55;1.60;;;6.50;81.00;;;;;;5071466;28;20025;-73
2021/03/14 02:57:45;;;;;;;11.27;1.92;;;6.50;81.00;;;;;;5072272;28;20029;-74
2021/03/14 03:00:15;;;;;;;11.25;2.15;;;6.50;81.00;;;;;;5070996;28;20091;-73
2021/03/14 03:02:45;;;;;;;7.40;1.50;;;6.50;81.00;;;;;;5072194;28;20128;-73
2021/03/14 03:05:14;;;;;;;8.07;1.92;;;6.50;81.00;;;;;;5070927;28;20024;-73
2021/03/14 03:07:44;;;;;;;15.48;2.22;;;6.40;81.00;;;;;;5072231;28;20380;-73
2021/03/14 03:10:10;;;;;;;7.35;1.92;;;6.40;81.00;;;;;;5072334;28;20044;-73
2021/03/14 03:12:36;;;;;;;6.60;1.73;;;6.40;80.80;;;;;;5072287;28;20032;-73
2021/03/14 03:15:02;;;;;;;5.63;1.75;;;6.40;81.00;;;;;;5073424;28;20376;-73
2021/03/14 03:17:28;;;;;;;8.82;1.50;;;6.30;81.00;;;;;;5074597;28;20048;-73
2021/03/14 03:19:55;;;;;;;8.32;1.83;;;6.30;81.00;;;;;;5074806;28;20461;-73
2021/03/14 03:22:22;;;;;;;9.35;2.00;;;6.30;81.10;;;;;;5076352;28;20039;-73
2021/03/14 03:24:48;;;;;;;9.68;2.00;;;6.30;81.00;;;;;;5076257;28;20028;-73
2021/03/14 03:27:14;;;;;;;9.77;2.10;;;6.30;80.90;;;;;;5074364;28;20025;-74
2021/03/14 03:29:40;;;;;;;10.98;1.88;;;6.30;80.80;;;;;;5075766;28;20494;-74
2021/03/14 03:32:06;;;;;;;8.95;2.33;;;6.30;80.80;;;;;;5074473;28;20031;-73
2021/03/14 03:34:32;;;;;;;11.05;2.22;;;6.30;80.80;;;;;;5075671;28;20099;-74
2021/03/14 03:36:58;;;;;;;11.65;1.80;;;6.30;80.70;;;;;;5075845;28;20044;-73
2021/03/14 03:39:24;;;;;;;11.07;2.97;;;6.20;80.70;;;;;;5074270;28;20033;-73
2021/03/14 03:41:54;;;;;;;12.50;2.25;;;6.20;80.70;;;;;;5075509;28;20391;-74
2021/03/14 03:44:23;;;;;;;9.00;2.13;;;6.20;80.80;;;;;;5074213;28;20029;-73
2021/03/14 03:46:51;;;;;;;12.23;2.78;;;6.20;80.90;;;;;;5074123;28;20492;-74
2021/03/14 03:49:25;;;;;;;6.28;1.45;;;6.20;80.80;;;;;;5074162;28;20511;-74
2021/03/14 03:51:52;;;;;;;9.10;1.92;;;6.20;80.90;;;;;;5074062;28;20044;-74
2021/03/14 03:54:18;;;;;;;8.02;1.45;;;6.20;80.90;;;;;;5075970;28;20095;-73
2021/03/14 03:56:45;;;;;;;10.15;2.05;;;6.20;80.90;;;;;;5075989;28;20486;-73
2021/03/14 03:59:11;;;;;;;13.82;2.17;;;6.20;81.10;;;;;;5075519;28;20096;-73
2021/03/14 04:01:41;;;;;;;13.43;2.22;;;6.20;81.10;;;;;;5075912;28;20444;-72
2021/03/14 04:04:08;;;;;;;10.00;1.98;;;6.10;81.10;;;;;;5074092;28;20025;-73
2021/03/14 04:06:35;;;;;;;11.60;2.08;;;6.10;81.20;;;;;;5075403;28;20498;-73
2021/03/14 04:09:01;;;;;;;12.80;2.20;;;6.10;81.20;;;;;;5074096;28;20390;-73
2021/03/14 04:11:27;;;;;;;7.07;1.77;;;6.20;81.30;;;;;;5073737;28;20016;-74
2021/03/14 04:13:54;;;;;;;9.60;2.03;;;6.10;81.30;;;;;;5074902;28;20537;-73
2021/03/14 04:16:21;;;;;;;9.18;1.95;;;6.10;81.40;;;;;;5073548;28;20511;-72
2021/03/14 04:18:49;;;;;;;9.68;2.10;;;6.10;81.40;;;;;;5075061;28;20422;-74
2021/03/14 04:21:16;;;;;;;8.70;1.98;;;6.10;81.60;;;;;;5073898;28;20103;-73
2021/03/14 04:23:52;;;;;;;5.28;1.60;;;6.00;81.70;;;;;;5073787;28;20024;-74
2021/03/14 04:26:21;;;;;;;7.45;1.90;;;6.00;81.80;;;;;;5072439;28;20040;-73
2021/03/14 04:28:48;;;;;;;16.95;2.45;;;6.00;82.00;;;;;;5073475;28;20036;-73
2021/03/14 04:31:14;;;;;;;13.60;2.28;;;6.00;82.10;;;;;;5074969;28;20048;-73
2021/03/14 04:33:42;;;;;;;11.63;2.00;;;6.00;82.20;;;;;;5073537;28;20035;-73
2021/03/14 04:36:09;;;;;;;8.57;1.95;;;5.90;82.30;;;;;;5074826;28;20504;-73
2021/03/14 04:38:36;;;;;;;12.52;2.05;;;6.00;82.60;;;;;;5073357;28;20028;-73
2021/03/14 04:41:03;;;;;;;7.05;1.80;;;6.00;82.80;;;;;;5073373;28;20020;-72
2021/03/14 04:43:30;;;;;;;9.65;2.33;;;6.00;83.40;;;;;;5074722;28;20090;-74
2021/03/14 04:45:57;;;;;;;13.02;2.28;;;6.00;82.70;;;;;;5073358;28;20480;-73
2021/03/14 04:48:23;;;;;;;8.05;1.80;;;6.00;82.80;;;;;;5074452;28;20028;-73
2021/03/14 04:50:52;;;;;;;12.57;1.90;;;6.10;83.00;;;;;;5073024;28;20025;-73
2021/03/14 04:53:20;;;;;;;10.13;1.70;;;6.10;82.90;;;;;;5073231;28;20027;-73
2021/03/14 04:55:48;;;;;;;9.23;1.77;;;6.10;82.90;;;;;;5073131;28;20115;-73
2021/03/14 04:58:19;;;;;;;6.18;1.92;;;6.10;82.90;;;;;;5074372;28;20025;-73
2021/03/14 05:00:45;;;;;;;7.55;1.80;;;6.10;82.80;;;;;;5073017;28;20503;-72
2021/03/14 05:03:15;;;;;;;8.23;1.60;;;6.10;82.90;;;;;;5074199;28;20091;-73
2021/03/14 05:05:44;;;;;;;10.32;1.80;;;6.20;83.00;;;;;;5074017;28;20032;-73
2021/03/14 05:08:11;;;;;;;12.07;2.40;;;6.20;83.00;;;;;;5072648;28;20017;-73
2021/03/14 05:10:39;;;;;;;10.88;2.10;;;6.20;83.00;;;;;;5072630;28;20029;-74
2021/03/14 05:13:05;;;;;;;7.15;2.00;;;6.10;83.00;;;;;;5072577;28;20020;-73
2021/03/14 05:15:32;;;;;;;6.22;1.67;;;6.20;83.10;;;;;;5073777;28;20041;-74
2021/03/14 05:17:57;;;;;;;8.50;1.55;;;6.10;82.90;;;;;;5074516;28;20048;-74
2021/03/14 05:20:26;;;;;;;9.73;2.10;;;6.20;83.00;;;;;;5072655;28;20027;-73
2021/03/14 05:22:55;;;;;;;7.82;1.88;;;6.20;83.10;;;;;;5073762;28;20029;-73
2021/03/14 05:25:21;;;;;;;5.75;1.55;;;6.20;83.10;;;;;;5074067;28;20074;-74
2021/03/14 05:27:50;;;;;;;7.68;1.80;;;6.10;83.10;;;;;;5074144;28;20043;-74
2021/03/14 05:30:20;;;;;;;8.65;1.50;;;6.10;83.10;;;;;;5072429;28;20021;-73
2021/03/14 05:32:46;;;;;;;5.50;1.90;;;6.20;83.10;;;;;;5072377;28;20037;-74
2021/03/14 05:35:12;;;;;;;10.18;2.40;;;6.20;83.10;;;;;;5073964;28;20107;-74
2021/03/14 05:37:38;;;;;;;7.95;2.20;;;6.20;83.10;;;;;;5073413;28;20381;-74
2021/03/14 05:40:04;;;;;;;8.25;2.35;;;6.10;83.20;;;;;;5073329;28;20048;-74
2021/03/14 05:42:31;;;;;;;8.20;2.22;;;6.10;83.20;;;;;;5071996;28;20397;-73
2021/03/14 05:44:58;;;;;;;7.00;2.40;;;6.00;83.30;;;;;;5073465;28;20033;-73
2021/03/14 05:47:23;;;;;;;7.20;2.65;;;6.00;83.70;;;;;;5073275;28;20032;-73
2021/03/14 05:49:49;;;;;;;5.97;2.30;;;5.90;83.90;;;;;;5073211;28;20043;-73
2021/03/14 05:52:17;;;;;;;8.07;2.30;;;5.90;83.90;;;;;;5073395;28;20059;-74
2021/03/14 05:54:45;;;;;;;4.70;2.22;;;5.90;84.00;;;;;;5073270;28;20025;-74
2021/03/14 05:57:11;;;;;;;4.35;2.20;;;5.90;84.20;;;;;;5071946;28;20024;-74
2021/03/14 05:59:37;;;;;;;4.55;1.75;;;5.90;84.20;;;;;;5073131;28;20024;-73
2021/03/14 06:02:04;;;;;;;4.55;2.08;;;5.90;84.30;;;;;;5072860;28;20028;-73
2021/03/14 06:04:30;;;;;;;6.50;2.17;;;5.90;84.40;;;;;;5071740;28;20028;-73
2021/03/14 06:06:57;;;;;;;6.03;2.25;;;5.90;84.50;;;;;;5071648;28;20532;-74
2021/03/14 06:09:22;;;;;;;6.78;2.72;;;5.90;84.60;;;;;;5071600;28;20020;-74
2021/03/14 06:11:48;;;;;;;5.55;2.50;;;5.90;84.80;;;;;;5073392;28;20483;-74
2021/03/14 06:14:14;;;;;;;7.05;2.70;;;5.90;84.90;;;;;;5071580;28;20119;-74
2021/03/14 06:16:41;;;;;;;11.00;3.05;;;5.90;85.00;;;;;;5072890;28;20086;-74
2021/03/14 06:19:07;;;;;;;5.95;2.70;;;5.90;85.20;;;;;;5071573;28;20020;-74
2021/03/14 06:21:33;;;;;;;6.53;2.85;;;5.90;85.20;;;;;;5072576;28;20380;-73
2021/03/14 06:24:08;;;;;;;5.30;2.90;;;6.00;85.40;;;;;;5071587;28;20399;-73
2021/03/14 06:26:46;;;;;;;5.82;2.50;;;5.90;85.40;;;;;;5071567;28;20016;-74
2021/03/14 06:29:17;;;;;;;5.20;2.75;;;5.90;85.40;;;;;;5071824;28;20025;-74
2021/03/14 06:32:04;;;;;;;7.05;2.80;;;6.00;85.50;;;;;;5072814;28;20031;-73
2021/03/14 06:34:35;;;;;;;5.05;2.50;;;5.90;85.50;;;;;;5071359;28;20084;-73
2021/03/14 06:37:15;;;;;;;5.05;2.55;;;6.00;85.50;;;;;;5071509;28;20020;-74
2021/03/14 06:39:46;;;;;;;4.65;2.65;;;6.00;85.60;;;;;;5072477;28;20028;-74
2021/03/14 06:42:38;;;;;;;5.70;2.80;;;6.00;85.70;;;;;;5072845;28;20036;-74
2021/03/14 06:45:07;;;;;;;3.75;2.33;;;6.00;85.60;;;;;;5072568;28;20082;-73
2021/03/14 06:47:48;;;;;;;6.53;2.83;;;6.10;85.60;;;;;;5071050;28;20033;-73
2021/03/14 06:50:28;;;;;;;5.03;2.40;;;6.10;85.50;;;;;;5074229;28;20017;-74
2021/03/14 06:53:18;;;;;;;5.70;2.67;;;6.10;85.50;;;;;;5076610;28;20081;-74
2021/03/14 06:55:51;;;;;;;4.90;2.40;;;6.10;85.50;;;;;;5076880;28;20045;-74
2021/03/14 06:58:27;;;;;;;5.80;2.83;;;6.20;85.50;;;;;;5076732;28;20527;-74
2021/03/14 07:01:30;;;;;;;5.35;2.78;;;6.20;85.40;;;;;;5076872;28;20028;-74
2021/03/14 07:03:57;;;;;;;3.92;2.50;;;6.20;85.40;;;;;;5074987;28;20409;-74
2021/03/14 07:06:25;;;;;;;4.63;2.50;;;6.20;85.40;;;;;;5076409;28;20074;-74
2021/03/14 07:08:57;;;;;;;3.92;2.50;;;6.20;85.90;;;;;;5074994;28;20024;-74
2021/03/14 07:11:45;;;;;;;7.13;2.72;;;6.20;85.40;;;;;;5076307;28;20020;-73
2021/03/14 07:14:13;;;;;;;5.35;3.05;;;6.20;85.40;;;;;;5074967;28;20025;-74
2021/03/14 07:16:49;;;;;;;5.53;2.47;;;6.20;85.50;;;;;;5076207;28;20046;-74
2021/03/14 07:19:31;;;;;;;5.20;3.35;;;6.30;85.60;;;;;;5076111;28;20029;-74
2021/03/14 07:22:10;;;;;;;4.78;3.63;;;6.30;85.60;;;;;;5076000;28;20024;-74
2021/03/14 07:24:40;;;;;;;6.18;3.90;;;6.30;85.40;;;;;;5075989;28;20380;-74
2021/03/14 07:27:11;;;;;;;6.40;3.50;;;6.30;85.40;;;;;;5074622;28;20044;-73
2021/03/14 07:29:38;;;;;;;4.65;3.63;;;6.30;85.30;;;;;;5076336;28;20029;-72
2021/03/14 07:32:05;;;;;;;7.80;4.53;;;6.30;85.40;;;;;;5075859;28;20024;-73
2021/03/14 07:34:31;;;;;;;7.50;4.07;;;6.30;85.40;;;;;;5074450;28;20017;-74
2021/03/14 07:36:57;;;;;;;5.38;3.50;;;6.40;85.50;;;;;;5074375;28;20020;-74
2021/03/14 07:39:23;;;;;;;5.30;3.40;;;6.40;85.50;;;;;;5075843;28;20024;-74
2021/03/14 07:41:49;;;;;;;8.07;4.10;;;6.40;85.60;;;;;;5075833;28;20082;-74
2021/03/14 07:44:20;;;;;;;7.10;4.00;;;6.40;85.50;;;;;;5074860;28;20032;-74
2021/03/14 07:46:47;;;;;;;5.70;3.80;;;6.40;85.40;;;;;;5074485;28;20090;-74
2021/03/14 07:49:17;;;;;;;7.25;4.13;;;6.50;85.50;;;;;;5074471;28;20013;-74
2021/03/14 07:51:49;;;;;;;9.20;4.32;;;6.50;85.40;;;;;;5075979;28;20078;-73
2021/03/14 07:54:43;;;;;;;7.07;4.20;;;6.50;85.50;;;;;;5075675;28;20095;-74
2021/03/14 07:57:10;;;;;;;;;;;6.60;85.40;;;;;;5073804;28;20032;-74
2021/03/14 07:59:36;;;;;;;8.00;3.65;;;6.70;85.50;;;;;;5073700;28;19912;-74
2021/03/14 08:02:17;;;;;;;8.13;4.10;;;6.70;85.40;;;;;;5073836;28;20024;-76
2021/03/14 08:08:06;;;;;;;11.82;5.57;;;6.80;85.30;;;;;;5075282;28;20090;-73
2021/03/14 08:10:43;;;;;;;9.10;5.50;;;6.90;85.30;;;;;;5073736;28;20024;-73
2021/03/14 08:13:17;;;;;;;13.05;5.78;;;7.00;85.30;;;;;;5073715;28;20078;-73
2021/03/14 08:15:43;;;;;;;;;;;7.10;85.30;;;;;;5073980;28;20079;-74
2021/03/14 08:18:39;;;;;;;11.98;6.20;;;7.10;85.40;;;;;;5073766;28;19948;-74
2021/03/14 08:21:06;;;;;;;10.43;6.30;;;7.10;85.30;;;;;;5075029;28;20120;-73
2021/03/14 08:23:42;;;;;;;12.52;6.35;;;7.20;85.30;;;;;;5074868;28;20029;-74
2021/03/14 08:26:29;;;;;;;8.77;5.40;;;7.20;85.30;;;;;;5073861;28;20025;-74
2021/03/14 08:29:03;;;;;;;10.60;5.30;;;7.30;85.40;;;;;;5074864;28;20037;-74
2021/03/14 08:31:48;;;;;;;8.88;4.85;;;7.30;85.20;;;;;;5073309;28;20020;-75
2021/03/14 08:34:18;;;;;;;8.68;4.95;;;7.40;85.20;;;;;;5074549;28;20468;-74
2021/03/14 08:36:44;;;;;;;9.25;4.68;;;7.40;85.00;;;;;;5073229;28;20070;-73
2021/03/14 08:39:31;;;;;;;8.48;4.97;;;7.50;85.10;;;;;;5073379;28;20021;-73
2021/03/14 08:42:04;;;;;;;9.18;4.53;;;7.50;85.00;;;;;;5074592;28;20458;-73
2021/03/14 08:44:43;;;;;;;7.85;4.70;;;7.60;85.00;;;;;;5074472;28;20482;-73
2021/03/14 08:47:13;;;;;;;10.52;4.30;;;7.70;84.90;;;;;;5073029;28;20032;-73
2021/03/14 08:49:48;;;;;;;11.63;4.38;;;7.80;84.60;;;;;;5074602;28;20086;-73
2021/03/14 08:52:16;;;;;;;7.88;4.38;;;7.80;84.50;;;;;;5073015;28;20024;-74
2021/03/14 08:54:50;;;;;;;11.20;5.40;;;7.90;84.50;;;;;;5073150;28;20025;-74
2021/03/14 08:57:17;;;;;;;7.80;4.05;;;8.00;84.40;;;;;;5074364;28;20021;-73
2021/03/14 08:59:51;;;;;;;9.48;3.95;;;8.00;84.30;;;;;;5072924;28;20016;-74
2021/03/14 09:02:21;;;;;;;;;;;8.10;84.30;;;;;;5074699;28;20028;-74
2021/03/14 09:04:48;;;;;;;9.95;4.30;;;8.10;84.20;;;;;;5074231;28;20417;-74
2021/03/14 09:07:14;;;;;;;8.90;4.03;;;8.10;84.00;;;;;;5072823;28;20028;-73
2021/03/14 09:09:41;;;;;;;9.15;4.30;;;8.10;83.80;;;;;;5072927;28;20087;-73
2021/03/14 09:12:08;;;;;;;8.95;3.97;;;8.10;83.70;;;;;;5072224;28;20013;-74
2021/03/14 09:14:47;;;;;;;11.75;4.45;;;8.10;83.80;;;;;;5074507;28;20024;-74
2021/03/14 09:17:20;;;;;;;9.73;3.65;;;8.10;83.70;;;;;;5073810;28;20059;-74
2021/03/14 09:19:46;;;;;;;7.95;3.42;;;8.20;83.60;;;;;;5074346;28;20056;-74
2021/03/14 09:22:33;;;;;;;7.07;3.03;;;8.20;83.40;;;;;;5073728;28;20078;-74
2021/03/14 09:25:00;;;;;;;10.35;3.70;;;8.20;83.20;;;;;;5073800;28;20024;-74
2021/03/14 09:27:31;;;;;;;8.00;3.30;;;8.30;83.20;;;;;;5072379;28;20027;-74
2021/03/14 09:30:07;;;;;;;11.10;4.15;;;8.30;83.10;;;;;;5074095;28;20124;-74
2021/03/14 09:32:35;;;;;;;10.10;3.60;;;8.40;82.80;;;;;;5072154;28;20124;-74
2021/03/14 09:35:26;;;;;;;10.93;3.70;;;8.50;82.20;;;;;;5072002;28;20101;-74
2021/03/14 09:38:11;;;;;;;11.88;3.80;;;8.50;81.70;;;;;;5073464;28;20025;-74
2021/03/14 09:40:44;;;;;;;8.50;3.50;;;8.50;81.40;;;;;;5073430;28;20035;-74
2021/03/14 09:43:25;;;;;;;11.48;3.35;;;8.50;81.50;;;;;;5073611;28;20087;-74
2021/03/14 09:45:55;;;;;;;7.93;3.13;;;8.60;80.60;;;;;;5073537;28;20023;-74
2021/03/14 09:48:22;;;;;;;14.02;3.33;;;8.60;80.80;;;;;;5073374;28;20051;-75
2021/03/14 09:50:51;;;;;;;7.97;3.22;;;8.70;80.40;;;;;;5073904;28;20537;-74
2021/03/14 09:53:22;;;;;;;11.95;3.80;;;8.70;80.40;;;;;;5071847;28;20017;-74
2021/03/14 09:55:50;;;;;;;6.57;3.40;;;8.80;80.40;;;;;;5071860;28;20484;-73
2021/03/14 09:58:18;;;;;;;9.80;3.35;;;8.90;79.60;;;;;;5073644;28;20020;-72
2021/03/14 10:00:46;;;;;;;7.95;3.10;;;9.00;79.50;;;;;;5073116;28;20029;-72
2021/03/14 10:03:16;;;;;;;7.97;3.10;;;9.00;79.50;;;;;;5071424;28;20029;-72
2021/03/14 10:05:45;;;;;;;7.85;2.78;;;9.10;79.40;;;;;;5072843;28;20032;-73
2021/03/14 10:08:19;;;;;;;8.40;3.33;;;9.20;79.10;;;;;;5072650;28;20033;-72
2021/03/14 10:10:45;;;;;;;;;;;9.30;79.20;;;;;;5071772;28;20081;-72
2021/03/14 10:13:11;;;;;;;7.97;2.63;;;9.30;78.90;;;;;;5071463;28;20332;-72
2021/03/14 10:15:37;;;;;;;6.40;2.90;;;9.30;78.60;;;;;;5072965;28;20480;-72
2021/03/14 10:18:04;;;;;;;5.30;3.13;;;9.40;77.80;;;;;;5071703;28;20074;-72
2021/03/14 10:20:30;;;;;;;8.38;2.53;;;9.40;76.90;;;;;;5072963;28;20036;-73
2021/03/14 10:23:01;;;;;;;9.98;2.53;;;9.30;76.30;;;;;;5071595;28;20354;-73
2021/03/14 10:25:28;;;;;;;7.75;2.70;;;9.30;77.00;;;;;;5071298;28;20031;-73
2021/03/14 10:28:07;;;;;;;8.52;2.80;;;9.40;77.30;;;;;;5072842;28;20032;-74
2021/03/14 10:30:33;;;;;;;6.28;2.38;;;9.40;76.60;;;;;;5071279;28;20032;-73
2021/03/14 10:32:59;;;;;;;8.45;2.70;;;9.40;76.50;;;;;;5071250;28;20103;-74
2021/03/14 10:35:25;;;;;;;6.22;2.35;;;9.30;76.60;;;;;;5072786;28;20029;-73
2021/03/14 10:37:51;;;;;;;4.70;1.55;;;9.30;76.40;;;;;;5071541;28;20074;-73
2021/03/14 10:40:25;;;;;;;3.25;1.25;;;9.30;73.20;;;;;;5071439;28;20529;-73
2021/03/14 10:42:52;;;;;;;4.35;1.10;;;9.10;73.90;;;;;;5072643;28;20032;-73
2021/03/14 10:45:23;;;;;;;2.97;0.93;;;9.00;74.10;;;;;;5071751;28;20190;-73
2021/03/14 10:48:06;;;;;;;1.67;1.02;;;8.90;74.20;;;;;;5072449;28;20020;-73
2021/03/14 10:50:34;;;;;;;1.00;0.73;;;8.80;74.80;;;;;;5071005;28;20020;-73
2021/03/14 10:53:14;;;;;;;2.20;0.60;;;8.70;74.40;;;;;;5071301;28;20017;-73
2021/03/14 10:55:41;;;;;;;1.25;1.15;;;8.60;74.90;;;;;;5071099;28;20464;-74
2021/03/14 10:58:18;;;;;;;3.38;1.20;;;8.60;75.40;;;;;;5072756;28;20063;-74
2021/03/14 11:00:48;;;;;;;3.15;1.25;;;8.70;75.90;;;;;;5073024;28;20471;-74
2021/03/14 11:03:36;;;;;;;5.70;1.60;;;8.90;76.00;;;;;;5072513;28;20039;-74
2021/03/14 11:06:10;;;;;;;5.78;1.60;;;9.10;76.00;;;;;;5072444;28;20380;-73
2021/03/14 11:08:47;;;;;;;5.85;1.60;;;9.10;76.10;;;;;;5070918;28;20035;-72
2021/03/14 11:11:13;;;;;;;6.00;1.95;;;9.10;76.30;;;;;;5072773;28;20029;-73
2021/03/14 11:13:38;;;;;;;6.00;2.00;;;9.20;76.50;;;;;;5072875;28;20017;-73
2021/03/14 11:16:09;;;;;;;11.65;3.75;;;9.20;76.20;;;;;;5072224;28;20036;-73
2021/03/14 11:18:35;;;;;;;7.80;3.35;;;9.20;76.50;;;;;;5072497;28;20133;-73
2021/03/14 11:21:04;;;;;;;6.88;2.85;;;9.20;76.00;;;;;;5070967;28;20414;-73
2021/03/14 11:23:30;;;;;;;6.82;1.90;;;9.20;76.00;;;;;;5071054;28;20025;-73
2021/03/14 11:25:56;;;;;;;2.70;1.30;;;9.30;75.90;;;;;;5071096;28;20195;-73
2021/03/14 11:28:22;;;;;;;4.78;1.65;;;9.40;75.50;;;;;;5071023;28;20158;-74
2021/03/14 11:30:48;;;;;;;4.40;1.10;;;9.50;75.60;;;;;;5072282;28;20123;-74
2021/03/14 11:33:13;;;;;;;2.95;1.50;;;9.60;75.60;;;;;;5071071;28;20021;-75
2021/03/14 11:35:39;;;;;;;3.92;1.10;;;9.80;75.40;;;;;;5072902;28;20078;-74
2021/03/14 11:38:05;;;;;;;4.20;1.27;;;9.90;75.10;;;;;;5074637;28;20016;-75
2021/03/14 11:40:31;;;;;;;3.10;1.10;;;9.90;74.70;;;;;;5074493;28;20111;-75
2021/03/14 11:42:56;;;;;;;5.93;1.33;;;10.00;73.80;;;;;;5076029;28;20031;-74
2021/03/14 11:45:23;;;;;;;4.30;1.30;;;10.10;73.40;;;;;;5074581;28;20028;-75
2021/03/14 11:47:48;;;;;;;3.90;1.40;;;10.10;73.80;;;;;;5075756;28;20028;-74
2021/03/14 11:50:14;;;;;;;7.63;1.48;;;10.10;73.30;;;;;;5075428;28;20138;-74
2021/03/14 11:52:42;;;;;;;7.07;1.52;;;10.00;73.50;;;;;;5074086;28;20047;-74
2021/03/14 11:55:09;;;;;;;2.67;1.23;;;9.90;73.50;;;;;;5075416;28;20376;-74
2021/03/14 11:57:34;;;;;;;5.45;1.73;;;10.00;73.30;;;;;;5075405;28;20029;-74
2021/03/14 12:00:02;;;;;;;4.13;1.60;;;9.90;72.70;;;;;;5074159;28;20021;-74
2021/03/14 12:02:28;;;;;;;3.05;1.20;;;10.00;72.80;;;;;;5076068;28;20025;-74
2021/03/14 12:04:53;;;;;;;4.95;1.55;;;10.10;72.90;;;;;;5075267;28;20036;-74
2021/03/14 12:07:19;;;;;;;7.00;1.92;;;10.20;70.80;;;;;;5073890;28;20400;-74
2021/03/14 12:09:45;;;;;;;4.00;1.60;;;10.20;70.40;;;;;;5075319;28;20024;-74
2021/03/14 12:12:11;;;;;;;5.28;1.50;;;10.30;70.50;;;;;;5073836;28;20025;-74
2021/03/14 12:14:37;;;;;;;4.88;1.50;;;10.30;70.00;;;;;;5073785;28;20472;-74
2021/03/14 12:17:03;;;;;;;6.72;1.60;;;10.30;68.90;;;;;;5073419;28;20059;-75
2021/03/14 12:19:28;;;;;;;4.75;1.20;;;10.40;69.10;;;;;;5075139;28;20123;-75
2021/03/14 12:21:54;;;;;;;4.25;1.33;;;10.40;68.60;;;;;;5073442;28;20021;-74
2021/03/14 12:24:20;;;;;;;4.10;1.17;;;10.40;68.10;;;;;;5073552;28;20056;-75
2021/03/14 12:26:45;;;;;;;3.80;1.23;;;10.40;68.20;;;;;;5074683;28;20044;-74
2021/03/14 12:29:12;;;;;;;2.35;1.00;;;10.40;68.20;;;;;;5073244;28;20023;-75
2021/03/14 12:31:37;;;;;;;3.30;1.00;;;10.40;68.10;;;;;;5073264;28;20070;-75
2021/03/14 12:34:03;;;;;;;7.40;1.65;;;10.40;68.40;;;;;;5072961;28;20028;-74
2021/03/14 12:36:29;;;;;;;6.45;1.48;;;10.40;68.30;;;;;;5074556;28;20140;-75
2021/03/14 12:38:54;;;;;;;5.05;1.48;;;10.30;68.30;;;;;;5074578;28;20028;-75
2021/03/14 12:41:20;;;;;;;7.28;1.83;;;10.30;68.60;;;;;;5073057;28;20032;-75
2021/03/14 12:43:46;;;;;;;5.78;1.45;;;10.40;69.00;;;;;;5073156;28;20025;-75
2021/03/14 12:46:11;;;;;;;7.25;1.63;;;10.40;69.00;;;;;;5073771;28;20039;-75
2021/03/14 12:48:37;;;;;;;4.75;1.52;;;10.40;68.90;;;;;;5072889;28;20033;-74
2021/03/14 12:51:03;;;;;;;4.63;1.50;;;10.30;68.20;;;;;;5074353;28;20016;-74
2021/03/14 12:53:29;;;;;;;8.60;1.88;;;10.20;69.10;;;;;;5074523;28;20114;-76
2021/03/14 12:55:54;;;;;;;4.50;1.40;;;10.20;68.50;;;;;;5074379;28;20390;-73
2021/03/14 12:58:20;;;;;;;5.03;1.50;;;10.10;68.90;;;;;;5073299;28;20119;-74
2021/03/14 13:00:46;;;;;;;4.15;1.40;;;10.20;67.70;;;;;;5073355;28;20031;-73
2021/03/14 13:03:11;;;;;;;6.38;1.50;;;10.20;68.50;;;;;;5074703;28;20070;-74
2021/03/14 13:05:37;;;;;;;4.65;1.50;;;10.20;68.40;;;;;;5073010;28;20020;-73
2021/03/14 13:08:03;;;;;;;6.85;2.00;;;10.20;68.30;;;;;;5074383;28;20036;-73